sensor_id;sensor_type;location;lat;lon;timestamp;P1;durP1;ratioP1;P2;durP2;ratioP2
58214;SDS011;44011;52.218;1.480;2022-07-01T00:01:28;3.90;;;2.28;;
58214;SDS011;44011;52.218;1.480;2022-07-01T00:03:54;5.53;;;2.45;;
58214;SDS011;44011;52.218;1.480;2022-07-01T00:06:19;5.55;;;1.95;;
58214;SDS011;44011;52.218;1.480;2022-07-01T00:08:45;2.72;;;2.00;;
58214;SDS011;44011;52.218;1.480;2022-07-01T00:11:11;3.88;;;1.80;;
58214;SDS011;44011;52.218;1.480;2022-07-01T00:13:37;5.18;;;2.25;;
58214;SDS011;44011;52.218;1.480;2022-07-01T00:16:03;2.42;;;1.50;;
58214;SDS011;44011;52.218;1.480;2022-07-01T00:18:29;4.00;;;1.60;;
58214;SDS011;44011;52.218;1.480;2022-07-01T00:20:55;2.90;;;2.05;;
58214;SDS011;44011;52.218;1.480;2022-07-01T00:23:20;3.78;;;1.67;;
58214;SDS011;44011;52.218;1.480;2022-07-01T00:25:46;3.85;;;1.50;;
58214;SDS011;44011;52.218;1.480;2022-07-01T00:28:12;2.85;;;1.67;;
58214;SDS011;44011;52.218;1.480;2022-07-01T00:30:38;3.05;;;1.77;;
58214;SDS011;44011;52.218;1.480;2022-07-01T00:33:03;2.50;;;1.65;;
58214;SDS011;44011;52.218;1.480;2022-07-01T00:35:30;6.68;;;1.50;;
58214;SDS011;44011;52.218;1.480;2022-07-01T00:37:56;3.20;;;1.40;;
58214;SDS011;44011;52.218;1.480;2022-07-01T00:40:22;2.40;;;1.33;;
58214;SDS011;44011;52.218;1.480;2022-07-01T00:42:48;2.85;;;1.45;;
58214;SDS011;44011;52.218;1.480;2022-07-01T00:45:15;3.38;;;1.80;;
58214;SDS011;44011;52.218;1.480;2022-07-01T00:47:40;3.00;;;1.42;;
58214;SDS011;44011;52.218;1.480;2022-07-01T00:50:07;3.63;;;1.42;;
58214;SDS011;44011;52.218;1.480;2022-07-01T00:52:35;3.05;;;1.65;;
58214;SDS011;44011;52.218;1.480;2022-07-01T00:55:03;3.80;;;1.20;;
58214;SDS011;44011;52.218;1.480;2022-07-01T00:57:31;1.40;;;1.30;;
58214;SDS011;44011;52.218;1.480;2022-07-01T00:59:58;3.55;;;1.50;;
58214;SDS011;44011;52.218;1.480;2022-07-01T01:02:24;2.97;;;1.70;;
58214;SDS011;44011;52.218;1.480;2022-07-01T01:04:50;3.42;;;1.77;;
58214;SDS011;44011;52.218;1.480;2022-07-01T01:07:15;3.10;;;1.73;;
58214;SDS011;44011;52.218;1.480;2022-07-01T01:09:41;2.78;;;1.77;;
58214;SDS011;44011;52.218;1.480;2022-07-01T01:12:06;3.45;;;1.73;;
58214;SDS011;44011;52.218;1.480;2022-07-01T01:14:45;2.15;;;1.70;;
58214;SDS011;44011;52.218;1.480;2022-07-01T01:17:12;2.25;;;1.92;;
58214;SDS011;44011;52.218;1.480;2022-07-01T01:19:39;4.55;;;1.92;;
58214;SDS011;44011;52.218;1.480;2022-07-01T01:22:05;4.93;;;2.00;;
58214;SDS011;44011;52.218;1.480;2022-07-01T01:24:31;3.28;;;1.77;;
58214;SDS011;44011;52.218;1.480;2022-07-01T01:26:56;2.17;;;1.60;;
58214;SDS011;44011;52.218;1.480;2022-07-01T01:29:22;5.53;;;1.80;;
58214;SDS011;44011;52.218;1.480;2022-07-01T01:31:48;2.40;;;1.70;;
58214;SDS011;44011;52.218;1.480;2022-07-01T01:34:13;2.20;;;1.85;;
58214;SDS011;44011;52.218;1.480;2022-07-01T01:36:39;2.35;;;1.88;;
58214;SDS011;44011;52.218;1.480;2022-07-01T01:39:05;3.17;;;2.00;;
58214;SDS011;44011;52.218;1.480;2022-07-01T01:41:39;2.40;;;2.08;;
58214;SDS011;44011;52.218;1.480;2022-07-01T01:44:05;3.47;;;2.13;;
58214;SDS011;44011;52.218;1.480;2022-07-01T01:46:30;2.10;;;1.80;;
58214;SDS011;44011;52.218;1.480;2022-07-01T01:48:56;2.20;;;1.98;;
58214;SDS011;44011;52.218;1.480;2022-07-01T01:51:22;3.22;;;2.28;;
58214;SDS011;44011;52.218;1.480;2022-07-01T01:53:48;5.97;;;2.05;;
58214;SDS011;44011;52.218;1.480;2022-07-01T01:56:14;7.28;;;2.20;;
58214;SDS011;44011;52.218;1.480;2022-07-01T01:58:39;3.80;;;2.03;;
58214;SDS011;44011;52.218;1.480;2022-07-01T02:01:08;3.42;;;2.30;;
58214;SDS011;44011;52.218;1.480;2022-07-01T02:03:35;2.80;;;2.10;;
58214;SDS011;44011;52.218;1.480;2022-07-01T02:06:02;4.20;;;2.00;;
58214;SDS011;44011;52.218;1.480;2022-07-01T02:08:29;4.65;;;2.05;;
58214;SDS011;44011;52.218;1.480;2022-07-01T02:10:54;3.30;;;2.50;;
58214;SDS011;44011;52.218;1.480;2022-07-01T02:13:20;6.25;;;3.95;;
58214;SDS011;44011;52.218;1.480;2022-07-01T02:15:45;6.75;;;2.70;;
58214;SDS011;44011;52.218;1.480;2022-07-01T02:18:11;3.20;;;2.13;;
58214;SDS011;44011;52.218;1.480;2022-07-01T02:20:37;3.83;;;2.42;;
58214;SDS011;44011;52.218;1.480;2022-07-01T02:23:02;3.10;;;2.30;;
58214;SDS011;44011;52.218;1.480;2022-07-01T02:25:28;2.30;;;1.90;;
58214;SDS011;44011;52.218;1.480;2022-07-01T02:27:53;4.38;;;2.75;;
58214;SDS011;44011;52.218;1.480;2022-07-01T02:30:19;4.45;;;2.65;;
58214;SDS011;44011;52.218;1.480;2022-07-01T02:32:44;3.28;;;2.53;;
58214;SDS011;44011;52.218;1.480;2022-07-01T02:35:10;2.67;;;2.25;;
58214;SDS011;44011;52.218;1.480;2022-07-01T02:37:36;5.00;;;2.30;;
58214;SDS011;44011;52.218;1.480;2022-07-01T02:40:02;4.32;;;2.50;;
58214;SDS011;44011;52.218;1.480;2022-07-01T02:42:28;7.57;;;2.85;;
58214;SDS011;44011;52.218;1.480;2022-07-01T02:45:00;2.88;;;2.40;;
58214;SDS011;44011;52.218;1.480;2022-07-01T02:47:30;3.85;;;2.45;;
58214;SDS011;44011;52.218;1.480;2022-07-01T02:49:59;3.30;;;2.20;;
58214;SDS011;44011;52.218;1.480;2022-07-01T02:52:25;3.05;;;2.28;;
58214;SDS011;44011;52.218;1.480;2022-07-01T02:54:52;6.10;;;2.67;;
58214;SDS011;44011;52.218;1.480;2022-07-01T02:57:18;6.40;;;3.47;;
58214;SDS011;44011;52.218;1.480;2022-07-01T02:59:43;5.30;;;2.63;;
58214;SDS011;44011;52.218;1.480;2022-07-01T03:02:09;5.15;;;2.72;;
58214;SDS011;44011;52.218;1.480;2022-07-01T03:04:34;4.47;;;2.67;;
58214;SDS011;44011;52.218;1.480;2022-07-01T03:07:00;3.05;;;2.10;;
58214;SDS011;44011;52.218;1.480;2022-07-01T03:09:26;2.85;;;1.90;;
58214;SDS011;44011;52.218;1.480;2022-07-01T03:11:51;4.40;;;2.97;;
58214;SDS011;44011;52.218;1.480;2022-07-01T03:14:17;4.15;;;3.10;;
58214;SDS011;44011;52.218;1.480;2022-07-01T03:16:43;3.67;;;2.83;;
58214;SDS011;44011;52.218;1.480;2022-07-01T03:19:08;2.97;;;2.63;;
58214;SDS011;44011;52.218;1.480;2022-07-01T03:21:34;3.60;;;2.55;;
58214;SDS011;44011;52.218;1.480;2022-07-01T03:24:00;5.03;;;2.90;;
58214;SDS011;44011;52.218;1.480;2022-07-01T03:26:25;6.00;;;3.03;;
58214;SDS011;44011;52.218;1.480;2022-07-01T03:28:50;7.47;;;3.00;;
58214;SDS011;44011;52.218;1.480;2022-07-01T03:31:16;8.73;;;3.03;;
58214;SDS011;44011;52.218;1.480;2022-07-01T03:33:41;5.00;;;3.22;;
58214;SDS011;44011;52.218;1.480;2022-07-01T03:36:07;5.85;;;3.53;;
58214;SDS011;44011;52.218;1.480;2022-07-01T03:38:32;4.75;;;3.08;;
58214;SDS011;44011;52.218;1.480;2022-07-01T03:40:58;4.60;;;2.58;;
58214;SDS011;44011;52.218;1.480;2022-07-01T03:43:25;4.45;;;2.80;;
58214;SDS011;44011;52.218;1.480;2022-07-01T03:45:50;4.47;;;3.20;;
58214;SDS011;44011;52.218;1.480;2022-07-01T03:48:16;8.63;;;3.42;;
58214;SDS011;44011;52.218;1.480;2022-07-01T03:50:41;4.20;;;2.88;;
58214;SDS011;44011;52.218;1.480;2022-07-01T03:53:07;6.50;;;2.60;;
58214;SDS011;44011;52.218;1.480;2022-07-01T03:55:51;4.25;;;3.33;;
58214;SDS011;44011;52.218;1.480;2022-07-01T03:58:16;3.72;;;3.03;;
58214;SDS011;44011;52.218;1.480;2022-07-01T04:00:42;4.88;;;3.35;;
58214;SDS011;44011;52.218;1.480;2022-07-01T04:03:07;5.95;;;3.10;;
58214;SDS011;44011;52.218;1.480;2022-07-01T04:05:33;5.85;;;3.13;;
58214;SDS011;44011;52.218;1.480;2022-07-01T04:08:00;6.57;;;3.10;;
58214;SDS011;44011;52.218;1.480;2022-07-01T04:10:26;4.70;;;3.08;;
58214;SDS011;44011;52.218;1.480;2022-07-01T04:12:51;7.80;;;3.67;;
58214;SDS011;44011;52.218;1.480;2022-07-01T04:15:17;4.43;;;2.63;;
58214;SDS011;44011;52.218;1.480;2022-07-01T04:17:42;4.05;;;3.13;;
58214;SDS011;44011;52.218;1.480;2022-07-01T04:20:08;5.47;;;3.63;;
58214;SDS011;44011;52.218;1.480;2022-07-01T04:22:34;4.97;;;3.13;;
58214;SDS011;44011;52.218;1.480;2022-07-01T04:25:01;4.32;;;3.28;;
58214;SDS011;44011;52.218;1.480;2022-07-01T04:27:29;5.97;;;3.13;;
58214;SDS011;44011;52.218;1.480;2022-07-01T04:29:55;4.88;;;3.13;;
58214;SDS011;44011;52.218;1.480;2022-07-01T04:32:21;4.07;;;3.08;;
58214;SDS011;44011;52.218;1.480;2022-07-01T04:34:47;4.45;;;3.05;;
58214;SDS011;44011;52.218;1.480;2022-07-01T04:37:12;6.40;;;3.13;;
58214;SDS011;44011;52.218;1.480;2022-07-01T04:39:38;6.22;;;3.10;;
58214;SDS011;44011;52.218;1.480;2022-07-01T04:42:03;4.47;;;3.40;;
58214;SDS011;44011;52.218;1.480;2022-07-01T04:44:30;6.03;;;3.65;;
58214;SDS011;44011;52.218;1.480;2022-07-01T04:46:57;4.43;;;3.45;;
58214;SDS011;44011;52.218;1.480;2022-07-01T04:49:22;7.32;;;4.22;;
58214;SDS011;44011;52.218;1.480;2022-07-01T04:51:48;8.30;;;3.75;;
58214;SDS011;44011;52.218;1.480;2022-07-01T04:54:14;6.07;;;3.40;;
58214;SDS011;44011;52.218;1.480;2022-07-01T04:56:39;4.75;;;2.88;;
58214;SDS011;44011;52.218;1.480;2022-07-01T04:59:05;4.75;;;4.22;;
58214;SDS011;44011;52.218;1.480;2022-07-01T05:01:31;11.98;;;7.78;;
58214;SDS011;44011;52.218;1.480;2022-07-01T05:03:57;8.18;;;4.03;;
58214;SDS011;44011;52.218;1.480;2022-07-01T05:06:23;5.75;;;3.08;;
58214;SDS011;44011;52.218;1.480;2022-07-01T05:08:49;4.43;;;3.28;;
58214;SDS011;44011;52.218;1.480;2022-07-01T05:11:15;6.03;;;3.33;;
58214;SDS011;44011;52.218;1.480;2022-07-01T05:13:40;6.22;;;3.00;;
58214;SDS011;44011;52.218;1.480;2022-07-01T05:16:06;5.05;;;3.08;;
58214;SDS011;44011;52.218;1.480;2022-07-01T05:18:33;5.53;;;3.83;;
58214;SDS011;44011;52.218;1.480;2022-07-01T05:21:17;7.32;;;4.10;;
58214;SDS011;44011;52.218;1.480;2022-07-01T05:24:01;6.95;;;3.30;;
58214;SDS011;44011;52.218;1.480;2022-07-01T05:26:28;10.63;;;3.83;;
58214;SDS011;44011;52.218;1.480;2022-07-01T05:28:53;8.73;;;2.78;;
58214;SDS011;44011;52.218;1.480;2022-07-01T05:31:19;4.35;;;3.10;;
58214;SDS011;44011;52.218;1.480;2022-07-01T05:33:45;4.60;;;2.92;;
58214;SDS011;44011;52.218;1.480;2022-07-01T05:36:12;5.90;;;2.88;;
58214;SDS011;44011;52.218;1.480;2022-07-01T05:38:37;5.18;;;2.75;;
58214;SDS011;44011;52.218;1.480;2022-07-01T05:41:03;8.13;;;3.10;;
58214;SDS011;44011;52.218;1.480;2022-07-01T05:43:29;5.15;;;2.92;;
58214;SDS011;44011;52.218;1.480;2022-07-01T05:45:55;3.67;;;2.88;;
58214;SDS011;44011;52.218;1.480;2022-07-01T05:48:21;4.10;;;3.00;;
58214;SDS011;44011;52.218;1.480;2022-07-01T05:50:47;4.65;;;2.75;;
58214;SDS011;44011;52.218;1.480;2022-07-01T05:53:13;4.10;;;2.22;;
58214;SDS011;44011;52.218;1.480;2022-07-01T05:55:39;6.00;;;2.92;;
58214;SDS011;44011;52.218;1.480;2022-07-01T05:58:05;4.22;;;2.90;;
58214;SDS011;44011;52.218;1.480;2022-07-01T06:00:33;6.90;;;3.47;;
58214;SDS011;44011;52.218;1.480;2022-07-01T06:02:59;7.10;;;2.60;;
58214;SDS011;44011;52.218;1.480;2022-07-01T06:05:25;6.18;;;3.55;;
58214;SDS011;44011;52.218;1.480;2022-07-01T06:07:50;4.50;;;2.72;;
58214;SDS011;44011;52.218;1.480;2022-07-01T06:10:16;6.82;;;3.35;;
58214;SDS011;44011;52.218;1.480;2022-07-01T06:12:41;7.10;;;2.88;;
58214;SDS011;44011;52.218;1.480;2022-07-01T06:15:07;7.43;;;3.28;;
58214;SDS011;44011;52.218;1.480;2022-07-01T06:17:34;7.75;;;2.88;;
58214;SDS011;44011;52.218;1.480;2022-07-01T06:20:00;8.50;;;3.28;;
58214;SDS011;44011;52.218;1.480;2022-07-01T06:22:26;9.82;;;3.42;;
58214;SDS011;44011;52.218;1.480;2022-07-01T06:24:51;5.60;;;3.40;;
58214;SDS011;44011;52.218;1.480;2022-07-01T06:27:17;7.72;;;3.28;;
58214;SDS011;44011;52.218;1.480;2022-07-01T06:29:42;6.40;;;3.28;;
58214;SDS011;44011;52.218;1.480;2022-07-01T06:32:08;7.28;;;4.15;;
58214;SDS011;44011;52.218;1.480;2022-07-01T06:34:34;5.68;;;3.80;;
58214;SDS011;44011;52.218;1.480;2022-07-01T06:37:00;6.65;;;3.75;;
58214;SDS011;44011;52.218;1.480;2022-07-01T06:39:26;4.80;;;3.45;;
58214;SDS011;44011;52.218;1.480;2022-07-01T06:41:52;6.07;;;3.65;;
58214;SDS011;44011;52.218;1.480;2022-07-01T06:44:18;11.60;;;4.28;;
58214;SDS011;44011;52.218;1.480;2022-07-01T06:46:43;4.72;;;3.40;;
58214;SDS011;44011;52.218;1.480;2022-07-01T06:49:09;8.75;;;3.45;;
58214;SDS011;44011;52.218;1.480;2022-07-01T06:51:34;5.95;;;3.72;;
58214;SDS011;44011;52.218;1.480;2022-07-01T06:54:00;5.43;;;4.28;;
58214;SDS011;44011;52.218;1.480;2022-07-01T06:56:26;4.85;;;4.07;;
58214;SDS011;44011;52.218;1.480;2022-07-01T06:58:51;6.60;;;3.80;;
58214;SDS011;44011;52.218;1.480;2022-07-01T07:01:17;6.57;;;4.47;;
58214;SDS011;44011;52.218;1.480;2022-07-01T07:03:42;13.05;;;5.38;;
58214;SDS011;44011;52.218;1.480;2022-07-01T07:06:08;7.20;;;4.55;;
58214;SDS011;44011;52.218;1.480;2022-07-01T07:08:33;9.02;;;4.97;;
58214;SDS011;44011;52.218;1.480;2022-07-01T07:10:59;7.70;;;4.57;;
58214;SDS011;44011;52.218;1.480;2022-07-01T07:13:25;9.93;;;5.03;;
58214;SDS011;44011;52.218;1.480;2022-07-01T07:15:51;6.93;;;4.22;;
58214;SDS011;44011;52.218;1.480;2022-07-01T07:18:16;9.38;;;4.68;;
58214;SDS011;44011;52.218;1.480;2022-07-01T07:20:42;6.90;;;4.82;;
58214;SDS011;44011;52.218;1.480;2022-07-01T07:23:08;8.27;;;4.82;;
58214;SDS011;44011;52.218;1.480;2022-07-01T07:25:34;8.27;;;4.68;;
58214;SDS011;44011;52.218;1.480;2022-07-01T07:28:00;8.00;;;4.88;;
58214;SDS011;44011;52.218;1.480;2022-07-01T07:30:25;7.97;;;4.80;;
58214;SDS011;44011;52.218;1.480;2022-07-01T07:32:51;7.07;;;4.32;;
58214;SDS011;44011;52.218;1.480;2022-07-01T07:35:16;9.07;;;4.13;;
58214;SDS011;44011;52.218;1.480;2022-07-01T07:37:42;6.03;;;3.60;;
58214;SDS011;44011;52.218;1.480;2022-07-01T07:40:08;6.45;;;3.78;;
58214;SDS011;44011;52.218;1.480;2022-07-01T07:42:38;5.03;;;3.53;;
58214;SDS011;44011;52.218;1.480;2022-07-01T07:45:05;4.45;;;3.30;;
58214;SDS011;44011;52.218;1.480;2022-07-01T07:47:36;4.93;;;2.90;;
58214;SDS011;44011;52.218;1.480;2022-07-01T07:50:02;5.95;;;4.45;;
58214;SDS011;44011;52.218;1.480;2022-07-01T07:52:28;6.68;;;3.80;;
58214;SDS011;44011;52.218;1.480;2022-07-01T07:54:54;6.25;;;3.15;;
58214;SDS011;44011;52.218;1.480;2022-07-01T07:57:20;7.10;;;3.38;;
58214;SDS011;44011;52.218;1.480;2022-07-01T07:59:45;3.83;;;3.35;;
58214;SDS011;44011;52.218;1.480;2022-07-01T08:02:11;3.97;;;2.72;;
58214;SDS011;44011;52.218;1.480;2022-07-01T08:04:37;3.65;;;3.17;;
58214;SDS011;44011;52.218;1.480;2022-07-01T08:07:02;5.18;;;2.90;;
58214;SDS011;44011;52.218;1.480;2022-07-01T08:09:28;2.95;;;2.70;;
58214;SDS011;44011;52.218;1.480;2022-07-01T08:11:54;3.75;;;2.38;;
58214;SDS011;44011;52.218;1.480;2022-07-01T08:14:19;5.25;;;2.70;;
58214;SDS011;44011;52.218;1.480;2022-07-01T08:16:45;3.53;;;2.88;;
58214;SDS011;44011;52.218;1.480;2022-07-01T08:19:10;2.35;;;1.70;;
58214;SDS011;44011;52.218;1.480;2022-07-01T08:21:36;2.90;;;1.73;;
58214;SDS011;44011;52.218;1.480;2022-07-01T08:24:02;2.40;;;1.90;;
58214;SDS011;44011;52.218;1.480;2022-07-01T08:26:27;2.58;;;1.70;;
58214;SDS011;44011;52.218;1.480;2022-07-01T08:28:53;3.70;;;1.90;;
58214;SDS011;44011;52.218;1.480;2022-07-01T08:31:19;1.92;;;1.80;;
58214;SDS011;44011;52.218;1.480;2022-07-01T08:33:44;2.38;;;1.90;;
58214;SDS011;44011;52.218;1.480;2022-07-01T08:36:10;3.58;;;1.60;;
58214;SDS011;44011;52.218;1.480;2022-07-01T08:38:36;4.65;;;1.83;;
58214;SDS011;44011;52.218;1.480;2022-07-01T08:41:02;3.67;;;1.52;;
58214;SDS011;44011;52.218;1.480;2022-07-01T08:43:29;1.60;;;1.00;;
58214;SDS011;44011;52.218;1.480;2022-07-01T08:45:55;2.30;;;1.40;;
58214;SDS011;44011;52.218;1.480;2022-07-01T08:48:21;1.45;;;1.35;;
58214;SDS011;44011;52.218;1.480;2022-07-01T08:50:46;2.45;;;1.42;;
58214;SDS011;44011;52.218;1.480;2022-07-01T08:53:13;3.58;;;1.40;;
58214;SDS011;44011;52.218;1.480;2022-07-01T08:55:39;2.75;;;1.30;;
58214;SDS011;44011;52.218;1.480;2022-07-01T08:58:24;1.40;;;1.20;;
58214;SDS011;44011;52.218;1.480;2022-07-01T09:00:51;3.30;;;1.30;;
58214;SDS011;44011;52.218;1.480;2022-07-01T09:03:20;3.75;;;1.63;;
58214;SDS011;44011;52.218;1.480;2022-07-01T09:05:48;2.90;;;1.27;;
58214;SDS011;44011;52.218;1.480;2022-07-01T09:08:15;2.72;;;1.30;;
58214;SDS011;44011;52.218;1.480;2022-07-01T09:10:40;1.30;;;1.20;;
58214;SDS011;44011;52.218;1.480;2022-07-01T09:13:07;1.48;;;1.10;;
58214;SDS011;44011;52.218;1.480;2022-07-01T09:15:35;2.15;;;1.35;;
58214;SDS011;44011;52.218;1.480;2022-07-01T09:18:06;2.58;;;1.27;;
58214;SDS011;44011;52.218;1.480;2022-07-01T09:20:36;4.03;;;1.42;;
58214;SDS011;44011;52.218;1.480;2022-07-01T09:23:07;2.65;;;1.40;;
58214;SDS011;44011;52.218;1.480;2022-07-01T09:28:11;4.50;;;1.33;;
58214;SDS011;44011;52.218;1.480;2022-07-01T09:30:39;1.33;;;1.23;;
58214;SDS011;44011;52.218;1.480;2022-07-01T09:35:41;2.60;;;1.27;;
58214;SDS011;44011;52.218;1.480;2022-07-01T09:38:09;1.33;;;1.00;;
58214;SDS011;44011;52.218;1.480;2022-07-01T09:43:24;1.67;;;1.08;;
58214;SDS011;44011;52.218;1.480;2022-07-01T09:45:51;1.80;;;1.10;;
58214;SDS011;44011;52.218;1.480;2022-07-01T09:48:22;1.23;;;0.90;;
58214;SDS011;44011;52.218;1.480;2022-07-01T09:50:49;3.55;;;1.38;;
58214;SDS011;44011;52.218;1.480;2022-07-01T09:53:14;1.25;;;1.15;;
58214;SDS011;44011;52.218;1.480;2022-07-01T09:55:40;1.90;;;1.42;;
58214;SDS011;44011;52.218;1.480;2022-07-01T09:58:06;1.90;;;1.55;;
58214;SDS011;44011;52.218;1.480;2022-07-01T10:00:32;1.88;;;1.25;;
58214;SDS011;44011;52.218;1.480;2022-07-01T10:03:00;2.40;;;1.35;;
58214;SDS011;44011;52.218;1.480;2022-07-01T10:05:26;4.03;;;1.70;;
58214;SDS011;44011;52.218;1.480;2022-07-01T10:07:57;4.13;;;2.00;;
58214;SDS011;44011;52.218;1.480;2022-07-01T10:13:16;4.13;;;1.58;;
58214;SDS011;44011;52.218;1.480;2022-07-01T10:15:42;1.95;;;1.30;;
58214;SDS011;44011;52.218;1.480;2022-07-01T10:18:20;2.85;;;1.45;;
58214;SDS011;44011;52.218;1.480;2022-07-01T10:20:47;2.40;;;1.60;;
58214;SDS011;44011;52.218;1.480;2022-07-01T10:23:13;5.63;;;2.13;;
58214;SDS011;44011;52.218;1.480;2022-07-01T10:25:43;2.60;;;1.60;;
58214;SDS011;44011;52.218;1.480;2022-07-01T10:28:19;1.60;;;1.35;;
58214;SDS011;44011;52.218;1.480;2022-07-01T10:30:59;2.80;;;1.60;;
58214;SDS011;44011;52.218;1.480;2022-07-01T10:41:40;2.03;;;1.80;;
58214;SDS011;44011;52.218;1.480;2022-07-01T10:44:17;3.30;;;1.35;;
58214;SDS011;44011;52.218;1.480;2022-07-01T10:52:11;1.52;;;1.42;;
58214;SDS011;44011;52.218;1.480;2022-07-01T10:59:43;2.72;;;1.35;;
58214;SDS011;44011;52.218;1.480;2022-07-01T11:04:56;1.33;;;1.23;;
58214;SDS011;44011;52.218;1.480;2022-07-01T11:07:24;1.70;;;1.20;;
58214;SDS011;44011;52.218;1.480;2022-07-01T11:09:51;1.70;;;1.60;;
58214;SDS011;44011;52.218;1.480;2022-07-01T11:12:16;1.35;;;1.23;;
58214;SDS011;44011;52.218;1.480;2022-07-01T11:14:42;2.25;;;1.25;;
58214;SDS011;44011;52.218;1.480;2022-07-01T11:17:09;2.47;;;1.00;;
58214;SDS011;44011;52.218;1.480;2022-07-01T11:19:35;1.25;;;1.10;;
58214;SDS011;44011;52.218;1.480;2022-07-01T11:22:02;2.20;;;1.00;;
58214;SDS011;44011;52.218;1.480;2022-07-01T11:24:28;2.38;;;0.93;;
58214;SDS011;44011;52.218;1.480;2022-07-01T11:27:12;1.20;;;0.75;;
58214;SDS011;44011;52.218;1.480;2022-07-01T11:29:37;0.93;;;0.93;;
58214;SDS011;44011;52.218;1.480;2022-07-01T11:32:03;1.15;;;0.88;;
58214;SDS011;44011;52.218;1.480;2022-07-01T11:34:29;0.82;;;0.80;;
58214;SDS011;44011;52.218;1.480;2022-07-01T11:36:55;0.60;;;0.60;;
58214;SDS011;44011;52.218;1.480;2022-07-01T11:39:40;1.67;;;0.80;;
58214;SDS011;44011;52.218;1.480;2022-07-01T11:42:07;1.73;;;1.00;;
58214;SDS011;44011;52.218;1.480;2022-07-01T11:44:34;1.10;;;0.80;;
58214;SDS011;44011;52.218;1.480;2022-07-01T11:47:11;1.02;;;0.90;;
58214;SDS011;44011;52.218;1.480;2022-07-01T11:49:44;1.02;;;0.93;;
58214;SDS011;44011;52.218;1.480;2022-07-01T11:52:14;1.75;;;1.00;;
58214;SDS011;44011;52.218;1.480;2022-07-01T11:54:40;3.00;;;1.23;;
58214;SDS011;44011;52.218;1.480;2022-07-01T11:57:09;0.80;;;0.80;;
58214;SDS011;44011;52.218;1.480;2022-07-01T11:59:36;1.10;;;1.00;;
58214;SDS011;44011;52.218;1.480;2022-07-01T12:02:05;1.60;;;1.15;;
58214;SDS011;44011;52.218;1.480;2022-07-01T12:04:32;1.10;;;0.93;;
58214;SDS011;44011;52.218;1.480;2022-07-01T12:06:58;1.10;;;1.00;;
58214;SDS011;44011;52.218;1.480;2022-07-01T12:09:25;3.05;;;1.10;;
58214;SDS011;44011;52.218;1.480;2022-07-01T12:11:51;1.88;;;1.05;;
58214;SDS011;44011;52.218;1.480;2022-07-01T12:14:30;0.90;;;0.90;;
58214;SDS011;44011;52.218;1.480;2022-07-01T12:17:02;2.00;;;1.10;;
58214;SDS011;44011;52.218;1.480;2022-07-01T12:19:30;2.33;;;1.13;;
58214;SDS011;44011;52.218;1.480;2022-07-01T12:22:04;1.55;;;0.90;;
58214;SDS011;44011;52.218;1.480;2022-07-01T12:24:31;1.58;;;1.00;;
58214;SDS011;44011;52.218;1.480;2022-07-01T12:29:27;1.30;;;1.20;;
58214;SDS011;44011;52.218;1.480;2022-07-01T12:31:57;3.35;;;1.23;;
58214;SDS011;44011;52.218;1.480;2022-07-01T12:34:36;1.27;;;1.20;;
58214;SDS011;44011;52.218;1.480;2022-07-01T12:37:01;1.42;;;1.02;;
58214;SDS011;44011;52.218;1.480;2022-07-01T12:39:27;1.38;;;1.08;;
58214;SDS011;44011;52.218;1.480;2022-07-01T12:41:53;0.75;;;0.70;;
58214;SDS011;44011;52.218;1.480;2022-07-01T12:46:50;2.00;;;1.08;;
58214;SDS011;44011;52.218;1.480;2022-07-01T12:49:25;1.58;;;1.20;;
58214;SDS011;44011;52.218;1.480;2022-07-01T12:51:51;2.03;;;1.23;;
58214;SDS011;44011;52.218;1.480;2022-07-01T12:54:35;2.30;;;0.75;;
58214;SDS011;44011;52.218;1.480;2022-07-01T12:57:03;1.08;;;0.95;;
58214;SDS011;44011;52.218;1.480;2022-07-01T12:59:29;3.30;;;0.80;;
58214;SDS011;44011;52.218;1.480;2022-07-01T13:01:54;4.03;;;0.90;;
58214;SDS011;44011;52.218;1.480;2022-07-01T13:04:26;0.82;;;0.80;;
58214;SDS011;44011;52.218;1.480;2022-07-01T13:06:53;2.28;;;0.80;;
58214;SDS011;44011;52.218;1.480;2022-07-01T13:09:19;0.93;;;0.60;;
58214;SDS011;44011;52.218;1.480;2022-07-01T13:11:44;3.25;;;0.98;;
58214;SDS011;44011;52.218;1.480;2022-07-01T13:14:10;0.80;;;0.75;;
58214;SDS011;44011;52.218;1.480;2022-07-01T13:16:36;0.57;;;0.57;;
58214;SDS011;44011;52.218;1.480;2022-07-01T13:19:01;1.10;;;0.95;;
58214;SDS011;44011;52.218;1.480;2022-07-01T13:21:27;0.88;;;0.60;;
58214;SDS011;44011;52.218;1.480;2022-07-01T13:23:54;0.65;;;0.52;;
58214;SDS011;44011;52.218;1.480;2022-07-01T13:26:20;2.08;;;0.60;;
58214;SDS011;44011;52.218;1.480;2022-07-01T13:28:45;5.50;;;0.70;;
58214;SDS011;44011;52.218;1.480;2022-07-01T13:31:11;0.60;;;0.60;;
58214;SDS011;44011;52.218;1.480;2022-07-01T13:33:36;0.50;;;0.50;;
58214;SDS011;44011;52.218;1.480;2022-07-01T13:36:02;2.65;;;0.70;;
58214;SDS011;44011;52.218;1.480;2022-07-01T13:38:28;0.60;;;0.60;;
58214;SDS011;44011;52.218;1.480;2022-07-01T13:40:53;1.67;;;0.70;;
58214;SDS011;44011;52.218;1.480;2022-07-01T13:43:19;0.80;;;0.70;;
58214;SDS011;44011;52.218;1.480;2022-07-01T13:45:44;1.30;;;0.50;;
58214;SDS011;44011;52.218;1.480;2022-07-01T13:48:10;0.70;;;0.70;;
58214;SDS011;44011;52.218;1.480;2022-07-01T13:50:35;0.73;;;0.70;;
58214;SDS011;44011;52.218;1.480;2022-07-01T13:53:01;0.70;;;0.70;;
58214;SDS011;44011;52.218;1.480;2022-07-01T13:55:27;0.75;;;0.75;;
58214;SDS011;44011;52.218;1.480;2022-07-01T13:57:52;1.20;;;0.80;;
58214;SDS011;44011;52.218;1.480;2022-07-01T14:00:18;1.48;;;0.80;;
58214;SDS011;44011;52.218;1.480;2022-07-01T14:02:44;0.75;;;0.70;;
58214;SDS011;44011;52.218;1.480;2022-07-01T14:05:10;1.05;;;0.80;;
58214;SDS011;44011;52.218;1.480;2022-07-01T14:07:35;2.05;;;0.95;;
58214;SDS011;44011;52.218;1.480;2022-07-01T14:10:03;1.00;;;0.57;;
58214;SDS011;44011;52.218;1.480;2022-07-01T14:12:29;1.90;;;0.80;;
58214;SDS011;44011;52.218;1.480;2022-07-01T14:14:55;1.27;;;0.95;;
58214;SDS011;44011;52.218;1.480;2022-07-01T14:17:21;0.90;;;0.90;;
58214;SDS011;44011;52.218;1.480;2022-07-01T14:19:46;1.60;;;1.08;;
58214;SDS011;44011;52.218;1.480;2022-07-01T14:22:12;0.80;;;0.77;;
58214;SDS011;44011;52.218;1.480;2022-07-01T14:24:38;1.25;;;0.70;;
58214;SDS011;44011;52.218;1.480;2022-07-01T14:27:04;1.10;;;0.90;;
58214;SDS011;44011;52.218;1.480;2022-07-01T14:29:29;4.32;;;1.05;;
58214;SDS011;44011;52.218;1.480;2022-07-01T14:31:55;1.15;;;1.05;;
58214;SDS011;44011;52.218;1.480;2022-07-01T14:34:21;2.05;;;0.93;;
58214;SDS011;44011;52.218;1.480;2022-07-01T14:36:46;1.63;;;0.90;;
58214;SDS011;44011;52.218;1.480;2022-07-01T14:39:12;1.40;;;1.00;;
58214;SDS011;44011;52.218;1.480;2022-07-01T14:41:37;2.13;;;1.13;;
58214;SDS011;44011;52.218;1.480;2022-07-01T14:44:03;1.80;;;1.33;;
58214;SDS011;44011;52.218;1.480;2022-07-01T14:46:29;0.93;;;0.90;;
58214;SDS011;44011;52.218;1.480;2022-07-01T14:48:54;1.17;;;1.00;;
58214;SDS011;44011;52.218;1.480;2022-07-01T14:51:20;4.28;;;1.38;;
58214;SDS011;44011;52.218;1.480;2022-07-01T14:53:46;1.35;;;1.20;;
58214;SDS011;44011;52.218;1.480;2022-07-01T14:56:11;1.88;;;1.00;;
58214;SDS011;44011;52.218;1.480;2022-07-01T14:58:36;2.47;;;1.00;;
58214;SDS011;44011;52.218;1.480;2022-07-01T15:01:02;1.23;;;1.13;;
58214;SDS011;44011;52.218;1.480;2022-07-01T15:03:28;3.15;;;1.30;;
58214;SDS011;44011;52.218;1.480;2022-07-01T15:05:54;2.83;;;1.08;;
58214;SDS011;44011;52.218;1.480;2022-07-01T15:08:20;5.93;;;1.30;;
58214;SDS011;44011;52.218;1.480;2022-07-01T15:10:46;2.03;;;1.05;;
58214;SDS011;44011;52.218;1.480;2022-07-01T15:13:11;1.38;;;1.25;;
58214;SDS011;44011;52.218;1.480;2022-07-01T15:15:37;3.40;;;1.55;;
58214;SDS011;44011;52.218;1.480;2022-07-01T15:18:03;5.05;;;1.67;;
58214;SDS011;44011;52.218;1.480;2022-07-01T15:20:29;3.72;;;1.65;;
58214;SDS011;44011;52.218;1.480;2022-07-01T15:22:54;3.65;;;1.50;;